sensor_id;sensor_type;location;lat;lon;timestamp;temperature;humidity
3198;DHT22;1611;49.394;11.136;2024-02-21T00:01:22;7.50;61.90
3198;DHT22;1611;49.394;11.136;2024-02-21T00:03:49;7.50;62.30
3198;DHT22;1611;49.394;11.136;2024-02-21T00:06:16;7.60;62.70
3198;DHT22;1611;49.394;11.136;2024-02-21T00:08:43;7.60;62.60
3198;DHT22;1611;49.394;11.136;2024-02-21T00:11:11;7.60;63.20
3198;DHT22;1611;49.394;11.136;2024-02-21T00:13:38;7.60;63.00
3198;DHT22;1611;49.394;11.136;2024-02-21T00:16:05;7.60;62.60
3198;DHT22;1611;49.394;11.136;2024-02-21T00:18:31;7.60;61.80
3198;DHT22;1611;49.394;11.136;2024-02-21T00:20:58;7.50;61.70
3198;DHT22;1611;49.394;11.136;2024-02-21T00:23:27;7.40;62.40
3198;DHT22;1611;49.394;11.136;2024-02-21T00:25:54;7.50;63.00
3198;DHT22;1611;49.394;11.136;2024-02-21T00:28:22;7.50;63.30
3198;DHT22;1611;49.394;11.136;2024-02-21T00:30:48;7.50;63.00
3198;DHT22;1611;49.394;11.136;2024-02-21T00:33:16;7.50;63.00
3198;DHT22;1611;49.394;11.136;2024-02-21T00:35:43;7.50;63.50
3198;DHT22;1611;49.394;11.136;2024-02-21T00:38:10;7.50;63.70
3198;DHT22;1611;49.394;11.136;2024-02-21T00:40:37;7.50;63.70
3198;DHT22;1611;49.394;11.136;2024-02-21T00:43:03;7.60;63.80
3198;DHT22;1611;49.394;11.136;2024-02-21T00:45:31;7.60;63.70
3198;DHT22;1611;49.394;11.136;2024-02-21T00:47:58;7.60;62.70
3198;DHT22;1611;49.394;11.136;2024-02-21T00:50:25;7.60;62.20
3198;DHT22;1611;49.394;11.136;2024-02-21T00:52:52;7.60;61.90
3198;DHT22;1611;49.394;11.136;2024-02-21T00:55:18;7.70;61.90
3198;DHT22;1611;49.394;11.136;2024-02-21T00:57:45;7.60;62.20
3198;DHT22;1611;49.394;11.136;2024-02-21T01:00:13;7.60;62.80
3198;DHT22;1611;49.394;11.136;2024-02-21T01:02:41;7.60;63.00
3198;DHT22;1611;49.394;11.136;2024-02-21T01:05:08;7.70;63.60
3198;DHT22;1611;49.394;11.136;2024-02-21T01:07:35;7.70;63.20
3198;DHT22;1611;49.394;11.136;2024-02-21T01:10:01;7.70;64.00
3198;DHT22;1611;49.394;11.136;2024-02-21T01:12:28;7.70;63.40
3198;DHT22;1611;49.394;11.136;2024-02-21T01:14:55;7.70;62.80
3198;DHT22;1611;49.394;11.136;2024-02-21T01:17:22;7.70;61.50
3198;DHT22;1611;49.394;11.136;2024-02-21T01:19:50;7.70;61.70
3198;DHT22;1611;49.394;11.136;2024-02-21T01:22:16;7.70;61.20
3198;DHT22;1611;49.394;11.136;2024-02-21T01:24:43;7.80;60.20
3198;DHT22;1611;49.394;11.136;2024-02-21T01:27:10;7.70;61.30
3198;DHT22;1611;49.394;11.136;2024-02-21T01:29:37;7.80;62.20
3198;DHT22;1611;49.394;11.136;2024-02-21T01:32:04;7.70;62.50
3198;DHT22;1611;49.394;11.136;2024-02-21T01:34:31;7.80;62.60
3198;DHT22;1611;49.394;11.136;2024-02-21T01:36:59;7.70;63.00
3198;DHT22;1611;49.394;11.136;2024-02-21T01:39:30;7.70;62.80
3198;DHT22;1611;49.394;11.136;2024-02-21T01:41:56;7.80;62.40
3198;DHT22;1611;49.394;11.136;2024-02-21T01:44:23;7.80;62.30
3198;DHT22;1611;49.394;11.136;2024-02-21T01:46:50;7.70;63.90
3198;DHT22;1611;49.394;11.136;2024-02-21T01:49:18;7.70;63.10
3198;DHT22;1611;49.394;11.136;2024-02-21T01:51:45;7.70;62.00
3198;DHT22;1611;49.394;11.136;2024-02-21T01:54:14;7.60;62.40
3198;DHT22;1611;49.394;11.136;2024-02-21T01:56:41;7.70;62.80
3198;DHT22;1611;49.394;11.136;2024-02-21T01:59:08;7.70;62.30
3198;DHT22;1611;49.394;11.136;2024-02-21T02:01:35;7.70;63.00
3198;DHT22;1611;49.394;11.136;2024-02-21T02:04:02;7.70;62.10
3198;DHT22;1611;49.394;11.136;2024-02-21T02:06:31;7.70;63.00
3198;DHT22;1611;49.394;11.136;2024-02-21T02:08:58;7.70;62.50
3198;DHT22;1611;49.394;11.136;2024-02-21T02:11:26;7.70;63.00
3198;DHT22;1611;49.394;11.136;2024-02-21T02:13:53;7.70;63.10
3198;DHT22;1611;49.394;11.136;2024-02-21T02:16:20;7.70;63.80
3198;DHT22;1611;49.394;11.136;2024-02-21T02:18:46;7.70;64.10
3198;DHT22;1611;49.394;11.136;2024-02-21T02:21:22;7.70;62.50
3198;DHT22;1611;49.394;11.136;2024-02-21T02:23:51;7.80;62.40
3198;DHT22;1611;49.394;11.136;2024-02-21T02:26:18;7.70;63.00
3198;DHT22;1611;49.394;11.136;2024-02-21T02:28:45;7.70;63.70
3198;DHT22;1611;49.394;11.136;2024-02-21T02:31:11;7.80;62.60
3198;DHT22;1611;49.394;11.136;2024-02-21T02:33:38;7.90;62.70
3198;DHT22;1611;49.394;11.136;2024-02-21T02:36:05;7.80;62.50
3198;DHT22;1611;49.394;11.136;2024-02-21T02:38:32;7.80;61.70
3198;DHT22;1611;49.394;11.136;2024-02-21T02:41:00;7.80;62.30
3198;DHT22;1611;49.394;11.136;2024-02-21T02:43:27;7.80;62.20
3198;DHT22;1611;49.394;11.136;2024-02-21T02:45:54;7.90;62.10
3198;DHT22;1611;49.394;11.136;2024-02-21T02:48:21;7.80;62.10
3198;DHT22;1611;49.394;11.136;2024-02-21T02:50:47;7.80;62.00
3198;DHT22;1611;49.394;11.136;2024-02-21T02:53:15;7.80;61.80
3198;DHT22;1611;49.394;11.136;2024-02-21T02:55:42;7.80;62.30
3198;DHT22;1611;49.394;11.136;2024-02-21T02:58:10;7.70;61.80
3198;DHT22;1611;49.394;11.136;2024-02-21T03:00:36;7.70;62.60
3198;DHT22;1611;49.394;11.136;2024-02-21T03:03:04;7.70;63.00
3198;DHT22;1611;49.394;11.136;2024-02-21T03:05:31;7.70;63.30
3198;DHT22;1611;49.394;11.136;2024-02-21T03:07:58;7.70;63.70
3198;DHT22;1611;49.394;11.136;2024-02-21T03:10:25;7.60;63.90
3198;DHT22;1611;49.394;11.136;2024-02-21T03:12:52;7.60;63.70
3198;DHT22;1611;49.394;11.136;2024-02-21T03:15:21;7.60;62.20
3198;DHT22;1611;49.394;11.136;2024-02-21T03:17:47;7.50;63.30
3198;DHT22;1611;49.394;11.136;2024-02-21T03:20:15;7.50;63.80
3198;DHT22;1611;49.394;11.136;2024-02-21T03:22:41;7.50;63.70
3198;DHT22;1611;49.394;11.136;2024-02-21T03:25:08;7.50;63.70
3198;DHT22;1611;49.394;11.136;2024-02-21T03:27:36;7.50;63.80
3198;DHT22;1611;49.394;11.136;2024-02-21T03:30:04;7.50;63.90
3198;DHT22;1611;49.394;11.136;2024-02-21T03:32:32;7.40;63.70
3198;DHT22;1611;49.394;11.136;2024-02-21T03:34:59;7.40;64.00
3198;DHT22;1611;49.394;11.136;2024-02-21T03:37:26;7.40;64.60
3198;DHT22;1611;49.394;11.136;2024-02-21T03:39:52;7.40;64.40
3198;DHT22;1611;49.394;11.136;2024-02-21T03:42:19;7.50;64.80
3198;DHT22;1611;49.394;11.136;2024-02-21T03:44:46;7.40;64.50
3198;DHT22;1611;49.394;11.136;2024-02-21T03:47:12;7.40;64.80
3198;DHT22;1611;49.394;11.136;2024-02-21T03:49:40;7.40;64.50
3198;DHT22;1611;49.394;11.136;2024-02-21T03:52:08;7.40;64.90
3198;DHT22;1611;49.394;11.136;2024-02-21T03:54:34;7.40;65.20
3198;DHT22;1611;49.394;11.136;2024-02-21T03:57:01;7.40;65.30
3198;DHT22;1611;49.394;11.136;2024-02-21T03:59:28;7.40;65.10
3198;DHT22;1611;49.394;11.136;2024-02-21T04:01:55;7.40;64.70
3198;DHT22;1611;49.394;11.136;2024-02-21T04:04:22;7.40;65.00
3198;DHT22;1611;49.394;11.136;2024-02-21T04:06:50;7.40;64.90
3198;DHT22;1611;49.394;11.136;2024-02-21T04:09:17;7.40;65.70
3198;DHT22;1611;49.394;11.136;2024-02-21T04:11:44;7.40;65.30
3198;DHT22;1611;49.394;11.136;2024-02-21T04:14:11;7.30;64.30
3198;DHT22;1611;49.394;11.136;2024-02-21T04:16:37;7.40;65.50
3198;DHT22;1611;49.394;11.136;2024-02-21T04:19:05;7.40;65.20
3198;DHT22;1611;49.394;11.136;2024-02-21T04:21:31;7.40;65.80
3198;DHT22;1611;49.394;11.136;2024-02-21T04:23:59;7.40;66.00
3198;DHT22;1611;49.394;11.136;2024-02-21T04:26:27;7.40;65.20
3198;DHT22;1611;49.394;11.136;2024-02-21T04:28:54;7.40;64.80
3198;DHT22;1611;49.394;11.136;2024-02-21T04:31:21;7.40;64.60
3198;DHT22;1611;49.394;11.136;2024-02-21T04:33:47;7.50;65.60
3198;DHT22;1611;49.394;11.136;2024-02-21T04:36:14;7.50;65.90
3198;DHT22;1611;49.394;11.136;2024-02-21T04:38:41;7.70;66.10
3198;DHT22;1611;49.394;11.136;2024-02-21T04:41:09;7.70;66.30
3198;DHT22;1611;49.394;11.136;2024-02-21T04:43:36;7.80;66.20
3198;DHT22;1611;49.394;11.136;2024-02-21T04:46:04;7.80;66.60
3198;DHT22;1611;49.394;11.136;2024-02-21T04:48:30;7.80;66.40
3198;DHT22;1611;49.394;11.136;2024-02-21T04:50:57;7.90;66.50
3198;DHT22;1611;49.394;11.136;2024-02-21T04:53:24;7.90;66.90
3198;DHT22;1611;49.394;11.136;2024-02-21T04:55:51;7.90;66.80
3198;DHT22;1611;49.394;11.136;2024-02-21T04:58:19;7.90;66.50
3198;DHT22;1611;49.394;11.136;2024-02-21T05:00:45;7.90;66.20
3198;DHT22;1611;49.394;11.136;2024-02-21T05:03:12;7.90;66.40
3198;DHT22;1611;49.394;11.136;2024-02-21T05:05:39;7.90;67.50
3198;DHT22;1611;49.394;11.136;2024-02-21T05:08:06;7.90;68.50
3198;DHT22;1611;49.394;11.136;2024-02-21T05:10:32;7.80;68.20
3198;DHT22;1611;49.394;11.136;2024-02-21T05:12:59;7.80;68.20
3198;DHT22;1611;49.394;11.136;2024-02-21T05:15:27;7.80;68.70
3198;DHT22;1611;49.394;11.136;2024-02-21T05:17:54;7.70;69.20
3198;DHT22;1611;49.394;11.136;2024-02-21T05:20:21;7.70;70.10
3198;DHT22;1611;49.394;11.136;2024-02-21T05:22:47;7.60;70.30
3198;DHT22;1611;49.394;11.136;2024-02-21T05:25:14;7.50;70.60
3198;DHT22;1611;49.394;11.136;2024-02-21T05:27:41;7.40;71.10
3198;DHT22;1611;49.394;11.136;2024-02-21T05:30:08;7.40;72.00
3198;DHT22;1611;49.394;11.136;2024-02-21T05:32:36;7.40;72.20
3198;DHT22;1611;49.394;11.136;2024-02-21T05:35:04;7.30;73.00
3198;DHT22;1611;49.394;11.136;2024-02-21T05:37:30;7.20;73.40
3198;DHT22;1611;49.394;11.136;2024-02-21T05:39:57;7.20;73.50
3198;DHT22;1611;49.394;11.136;2024-02-21T05:42:24;7.10;73.50
3198;DHT22;1611;49.394;11.136;2024-02-21T05:44:50;7.00;73.60
3198;DHT22;1611;49.394;11.136;2024-02-21T05:47:17;7.00;73.80
3198;DHT22;1611;49.394;11.136;2024-02-21T05:49:47;7.00;73.60
3198;DHT22;1611;49.394;11.136;2024-02-21T05:52:14;7.00;73.80
3198;DHT22;1611;49.394;11.136;2024-02-21T05:54:41;6.90;74.20
3198;DHT22;1611;49.394;11.136;2024-02-21T05:57:08;6.80;74.30
3198;DHT22;1611;49.394;11.136;2024-02-21T05:59:35;6.80;74.30
3198;DHT22;1611;49.394;11.136;2024-02-21T06:02:05;6.80;74.20
3198;DHT22;1611;49.394;11.136;2024-02-21T06:04:32;6.80;73.70
3198;DHT22;1611;49.394;11.136;2024-02-21T06:07:00;6.70;74.20
3198;DHT22;1611;49.394;11.136;2024-02-21T06:09:27;6.60;74.70
3198;DHT22;1611;49.394;11.136;2024-02-21T06:11:54;6.60;74.70
3198;DHT22;1611;49.394;11.136;2024-02-21T06:14:20;6.60;74.60
3198;DHT22;1611;49.394;11.136;2024-02-21T06:16:47;6.50;75.20
3198;DHT22;1611;49.394;11.136;2024-02-21T06:19:14;6.50;75.30
3198;DHT22;1611;49.394;11.136;2024-02-21T06:21:41;6.50;75.30
3198;DHT22;1611;49.394;11.136;2024-02-21T06:24:09;6.40;75.20
3198;DHT22;1611;49.394;11.136;2024-02-21T06:26:35;6.30;75.00
3198;DHT22;1611;49.394;11.136;2024-02-21T06:29:02;6.30;73.10
3198;DHT22;1611;49.394;11.136;2024-02-21T06:31:29;6.20;74.90
3198;DHT22;1611;49.394;11.136;2024-02-21T06:33:57;6.20;74.80
3198;DHT22;1611;49.394;11.136;2024-02-21T06:36:23;6.10;75.50
3198;DHT22;1611;49.394;11.136;2024-02-21T06:38:50;6.20;75.20
3198;DHT22;1611;49.394;11.136;2024-02-21T06:41:18;6.20;75.00
3198;DHT22;1611;49.394;11.136;2024-02-21T06:43:45;6.20;74.60
3198;DHT22;1611;49.394;11.136;2024-02-21T06:46:12;6.20;75.00
3198;DHT22;1611;49.394;11.136;2024-02-21T06:48:39;6.20;74.60
3198;DHT22;1611;49.394;11.136;2024-02-21T06:51:05;6.20;74.60
3198;DHT22;1611;49.394;11.136;2024-02-21T06:53:32;6.20;74.70
3198;DHT22;1611;49.394;11.136;2024-02-21T06:56:01;6.30;74.90
3198;DHT22;1611;49.394;11.136;2024-02-21T06:58:29;6.30;74.90
3198;DHT22;1611;49.394;11.136;2024-02-21T07:00:56;6.40;75.50
3198;DHT22;1611;49.394;11.136;2024-02-21T07:03:23;6.50;75.30
3198;DHT22;1611;49.394;11.136;2024-02-21T07:05:50;6.70;75.10
3198;DHT22;1611;49.394;11.136;2024-02-21T07:08:16;6.70;75.10
3198;DHT22;1611;49.394;11.136;2024-02-21T07:10:43;6.80;75.50
3198;DHT22;1611;49.394;11.136;2024-02-21T07:13:10;6.80;73.80
3198;DHT22;1611;49.394;11.136;2024-02-21T07:15:38;6.70;73.90
3198;DHT22;1611;49.394;11.136;2024-02-21T07:18:05;6.70;74.10
3198;DHT22;1611;49.394;11.136;2024-02-21T07:20:32;6.70;73.90
3198;DHT22;1611;49.394;11.136;2024-02-21T07:22:59;6.70;74.40
3198;DHT22;1611;49.394;11.136;2024-02-21T07:25:26;6.70;74.30
3198;DHT22;1611;49.394;11.136;2024-02-21T07:27:52;6.70;75.40
3198;DHT22;1611;49.394;11.136;2024-02-21T07:30:19;6.70;75.20
3198;DHT22;1611;49.394;11.136;2024-02-21T07:32:50;6.80;75.00
3198;DHT22;1611;49.394;11.136;2024-02-21T07:35:17;7.10;83.40
3198;DHT22;1611;49.394;11.136;2024-02-21T07:37:44;7.40;85.20
3198;DHT22;1611;49.394;11.136;2024-02-21T07:40:13;7.50;81.30
3198;DHT22;1611;49.394;11.136;2024-02-21T07:42:39;7.60;75.60
3198;DHT22;1611;49.394;11.136;2024-02-21T07:45:07;7.60;72.90
3198;DHT22;1611;49.394;11.136;2024-02-21T07:47:34;7.60;70.00
3198;DHT22;1611;49.394;11.136;2024-02-21T07:50:03;7.70;69.90
3198;DHT22;1611;49.394;11.136;2024-02-21T07:52:31;7.70;69.90
3198;DHT22;1611;49.394;11.136;2024-02-21T07:54:58;7.70;69.50
3198;DHT22;1611;49.394;11.136;2024-02-21T07:57:25;7.70;69.30
3198;DHT22;1611;49.394;11.136;2024-02-21T07:59:52;7.80;65.60
3198;DHT22;1611;49.394;11.136;2024-02-21T08:02:19;7.90;67.60
3198;DHT22;1611;49.394;11.136;2024-02-21T08:04:45;8.00;66.60
3198;DHT22;1611;49.394;11.136;2024-02-21T08:07:13;8.10;63.20
3198;DHT22;1611;49.394;11.136;2024-02-21T08:09:40;8.20;64.20
3198;DHT22;1611;49.394;11.136;2024-02-21T08:12:07;8.10;60.30
3198;DHT22;1611;49.394;11.136;2024-02-21T08:14:34;8.10;60.20
3198;DHT22;1611;49.394;11.136;2024-02-21T08:17:00;8.10;59.80
3198;DHT22;1611;49.394;11.136;2024-02-21T08:19:29;8.30;60.10
3198;DHT22;1611;49.394;11.136;2024-02-21T08:21:56;8.40;59.40
3198;DHT22;1611;49.394;11.136;2024-02-21T08:24:24;8.50;59.50
3198;DHT22;1611;49.394;11.136;2024-02-21T08:26:51;8.70;58.90
3198;DHT22;1611;49.394;11.136;2024-02-21T08:29:18;8.80;56.50
3198;DHT22;1611;49.394;11.136;2024-02-21T08:31:44;8.90;54.70
3198;DHT22;1611;49.394;11.136;2024-02-21T08:34:11;9.00;55.20
3198;DHT22;1611;49.394;11.136;2024-02-21T08:36:38;9.30;54.90
3198;DHT22;1611;49.394;11.136;2024-02-21T08:39:05;9.50;52.40
3198;DHT22;1611;49.394;11.136;2024-02-21T08:41:34;9.70;52.70
3198;DHT22;1611;49.394;11.136;2024-02-21T08:44:01;9.80;50.00
3198;DHT22;1611;49.394;11.136;2024-02-21T08:46:28;9.80;48.60
3198;DHT22;1611;49.394;11.136;2024-02-21T08:48:55;9.80;49.40
3198;DHT22;1611;49.394;11.136;2024-02-21T08:51:22;9.90;49.70
3198;DHT22;1611;49.394;11.136;2024-02-21T08:53:49;10.20;49.00
3198;DHT22;1611;49.394;11.136;2024-02-21T08:56:17;10.30;46.50
3198;DHT22;1611;49.394;11.136;2024-02-21T08:58:45;10.20;48.40
3198;DHT22;1611;49.394;11.136;2024-02-21T09:01:12;10.10;50.30
3198;DHT22;1611;49.394;11.136;2024-02-21T09:03:39;10.10;47.10
3198;DHT22;1611;49.394;11.136;2024-02-21T09:06:06;10.00;47.80
3198;DHT22;1611;49.394;11.136;2024-02-21T09:08:33;10.20;48.40
3198;DHT22;1611;49.394;11.136;2024-02-21T09:11:00;10.30;47.10
3198;DHT22;1611;49.394;11.136;2024-02-21T09:13:27;10.40;47.50
3198;DHT22;1611;49.394;11.136;2024-02-21T09:15:55;10.40;47.90
3198;DHT22;1611;49.394;11.136;2024-02-21T09:18:22;10.50;47.50
3198;DHT22;1611;49.394;11.136;2024-02-21T09:20:49;10.50;45.80
3198;DHT22;1611;49.394;11.136;2024-02-21T09:23:16;10.40;44.80
3198;DHT22;1611;49.394;11.136;2024-02-21T09:25:45;10.50;45.80
3198;DHT22;1611;49.394;11.136;2024-02-21T09:28:11;10.70;45.60
3198;DHT22;1611;49.394;11.136;2024-02-21T09:30:38;10.80;45.00
3198;DHT22;1611;49.394;11.136;2024-02-21T09:33:06;10.90;44.90
3198;DHT22;1611;49.394;11.136;2024-02-21T09:35:33;11.10;45.60
3198;DHT22;1611;49.394;11.136;2024-02-21T09:38:00;11.40;44.10
3198;DHT22;1611;49.394;11.136;2024-02-21T09:40:28;11.50;42.80
3198;DHT22;1611;49.394;11.136;2024-02-21T09:43:01;11.60;41.50
3198;DHT22;1611;49.394;11.136;2024-02-21T09:45:28;11.70;40.20
3198;DHT22;1611;49.394;11.136;2024-02-21T09:48:14;11.80;39.20
3198;DHT22;1611;49.394;11.136;2024-02-21T09:50:43;11.90;38.10
3198;DHT22;1611;49.394;11.136;2024-02-21T09:53:12;12.00;38.90
3198;DHT22;1611;49.394;11.136;2024-02-21T09:55:40;12.10;38.50
3198;DHT22;1611;49.394;11.136;2024-02-21T09:58:08;12.60;37.30
3198;DHT22;1611;49.394;11.136;2024-02-21T10:00:35;13.40;35.30
3198;DHT22;1611;49.394;11.136;2024-02-21T10:03:02;13.70;34.80
3198;DHT22;1611;49.394;11.136;2024-02-21T10:05:34;13.50;31.80
3198;DHT22;1611;49.394;11.136;2024-02-21T10:08:02;13.70;33.30
3198;DHT22;1611;49.394;11.136;2024-02-21T10:10:29;13.90;33.30
3198;DHT22;1611;49.394;11.136;2024-02-21T10:12:56;13.90;31.80
3198;DHT22;1611;49.394;11.136;2024-02-21T10:15:24;13.90;32.20
3198;DHT22;1611;49.394;11.136;2024-02-21T10:17:59;14.20;32.00
3198;DHT22;1611;49.394;11.136;2024-02-21T10:20:26;14.60;32.10
3198;DHT22;1611;49.394;11.136;2024-02-21T10:23:02;15.10;28.20
3198;DHT22;1611;49.394;11.136;2024-02-21T10:25:33;15.20;26.90
3198;DHT22;1611;49.394;11.136;2024-02-21T10:28:01;15.20;27.70
3198;DHT22;1611;49.394;11.136;2024-02-21T10:30:28;15.50;27.40
3198;DHT22;1611;49.394;11.136;2024-02-21T10:32:55;15.70;27.10
3198;DHT22;1611;49.394;11.136;2024-02-21T10:35:28;16.00;26.00
3198;DHT22;1611;49.394;11.136;2024-02-21T10:37:56;16.10;26.70
3198;DHT22;1611;49.394;11.136;2024-02-21T10:40:25;16.30;25.20
3198;DHT22;1611;49.394;11.136;2024-02-21T10:42:56;16.50;24.80
3198;DHT22;1611;49.394;11.136;2024-02-21T10:45:29;16.10;24.40
3198;DHT22;1611;49.394;11.136;2024-02-21T10:48:06;16.40;23.60
3198;DHT22;1611;49.394;11.136;2024-02-21T10:50:46;16.70;23.80
3198;DHT22;1611;49.394;11.136;2024-02-21T10:53:22;16.80;22.30
3198;DHT22;1611;49.394;11.136;2024-02-21T10:55:58;16.80;22.40
3198;DHT22;1611;49.394;11.136;2024-02-21T10:58:26;17.20;22.40
3198;DHT22;1611;49.394;11.136;2024-02-21T11:00:55;17.30;22.50
3198;DHT22;1611;49.394;11.136;2024-02-21T11:03:22;17.50;20.00
3198;DHT22;1611;49.394;11.136;2024-02-21T11:05:50;17.60;19.20
3198;DHT22;1611;49.394;11.136;2024-02-21T11:08:17;17.10;21.50
3198;DHT22;1611;49.394;11.136;2024-02-21T11:10:46;16.80;22.50
3198;DHT22;1611;49.394;11.136;2024-02-21T11:13:14;16.50;23.00
3198;DHT22;1611;49.394;11.136;2024-02-21T11:15:41;16.40;24.50
3198;DHT22;1611;49.394;11.136;2024-02-21T11:18:08;16.40;24.60
3198;DHT22;1611;49.394;11.136;2024-02-21T11:20:36;16.30;25.30
3198;DHT22;1611;49.394;11.136;2024-02-21T11:23:03;16.10;23.90
3198;DHT22;1611;49.394;11.136;2024-02-21T11:25:30;15.90;24.20
3198;DHT22;1611;49.394;11.136;2024-02-21T11:28:01;15.40;25.40
3198;DHT22;1611;49.394;11.136;2024-02-21T11:30:31;15.30;25.70
3198;DHT22;1611;49.394;11.136;2024-02-21T11:33:00;15.10;25.30
3198;DHT22;1611;49.394;11.136;2024-02-21T11:35:31;15.10;22.30
3198;DHT22;1611;49.394;11.136;2024-02-21T11:38:08;15.50;22.40
3198;DHT22;1611;49.394;11.136;2024-02-21T11:40:38;16.00;23.40
3198;DHT22;1611;49.394;11.136;2024-02-21T11:43:04;16.40;22.20
3198;DHT22;1611;49.394;11.136;2024-02-21T11:45:32;17.00;20.30
3198;DHT22;1611;49.394;11.136;2024-02-21T11:47:59;17.90;18.80
3198;DHT22;1611;49.394;11.136;2024-02-21T11:50:29;17.90;17.20
3198;DHT22;1611;49.394;11.136;2024-02-21T11:52:56;17.70;17.00
3198;DHT22;1611;49.394;11.136;2024-02-21T11:55:23;17.80;17.70
3198;DHT22;1611;49.394;11.136;2024-02-21T11:57:49;18.40;16.10
3198;DHT22;1611;49.394;11.136;2024-02-21T12:00:17;18.80;16.10
3198;DHT22;1611;49.394;11.136;2024-02-21T12:02:47;19.60;14.50
3198;DHT22;1611;49.394;11.136;2024-02-21T12:05:16;20.30;16.50
3198;DHT22;1611;49.394;11.136;2024-02-21T12:07:43;21.00;16.80
3198;DHT22;1611;49.394;11.136;2024-02-21T12:10:10;21.40;12.50
3198;DHT22;1611;49.394;11.136;2024-02-21T12:12:37;21.80;11.40
3198;DHT22;1611;49.394;11.136;2024-02-21T12:15:05;21.70;11.40
3198;DHT22;1611;49.394;11.136;2024-02-21T12:17:32;21.10;12.90
3198;DHT22;1611;49.394;11.136;2024-02-21T12:20:01;21.50;14.50
3198;DHT22;1611;49.394;11.136;2024-02-21T12:22:31;21.80;14.40
3198;DHT22;1611;49.394;11.136;2024-02-21T12:24:58;22.00;11.40
3198;DHT22;1611;49.394;11.136;2024-02-21T12:27:26;22.30;11.10
3198;DHT22;1611;49.394;11.136;2024-02-21T12:29:52;22.00;12.00
3198;DHT22;1611;49.394;11.136;2024-02-21T12:32:19;21.70;14.50
3198;DHT22;1611;49.394;11.136;2024-02-21T12:34:46;21.50;15.10
3198;DHT22;1611;49.394;11.136;2024-02-21T12:37:14;21.00;15.40
3198;DHT22;1611;49.394;11.136;2024-02-21T12:39:41;20.80;15.80
3198;DHT22;1611;49.394;11.136;2024-02-21T12:42:09;20.40;15.20
3198;DHT22;1611;49.394;11.136;2024-02-21T12:44:37;20.30;15.50
3198;DHT22;1611;49.394;11.136;2024-02-21T12:47:04;20.40;16.00
3198;DHT22;1611;49.394;11.136;2024-02-21T12:49:31;20.40;15.60
3198;DHT22;1611;49.394;11.136;2024-02-21T12:51:58;19.50;14.70
3198;DHT22;1611;49.394;11.136;2024-02-21T12:54:26;19.00;16.60
3198;DHT22;1611;49.394;11.136;2024-02-21T12:56:52;19.10;16.90
3198;DHT22;1611;49.394;11.136;2024-02-21T12:59:19;18.60;17.40
3198;DHT22;1611;49.394;11.136;2024-02-21T13:01:46;18.00;18.20
3198;DHT22;1611;49.394;11.136;2024-02-21T13:04:13;17.70;19.30
3198;DHT22;1611;49.394;11.136;2024-02-21T13:06:40;17.50;19.10
3198;DHT22;1611;49.394;11.136;2024-02-21T13:09:07;17.00;20.40
3198;DHT22;1611;49.394;11.136;2024-02-21T13:11:37;17.00;20.00
3198;DHT22;1611;49.394;11.136;2024-02-21T13:14:04;17.00;20.50
3198;DHT22;1611;49.394;11.136;2024-02-21T13:16:31;17.10;20.50
3198;DHT22;1611;49.394;11.136;2024-02-21T13:18:59;17.20;20.20
3198;DHT22;1611;49.394;11.136;2024-02-21T13:21:26;17.50;19.80
3198;DHT22;1611;49.394;11.136;2024-02-21T13:23:53;17.70;21.60
3198;DHT22;1611;49.394;11.136;2024-02-21T13:26:19;17.90;19.70
3198;DHT22;1611;49.394;11.136;2024-02-21T13:28:47;17.70;19.50
3198;DHT22;1611;49.394;11.136;2024-02-21T13:31:14;17.70;19.70
3198;DHT22;1611;49.394;11.136;2024-02-21T13:33:42;17.70;19.00
3198;DHT22;1611;49.394;11.136;2024-02-21T13:36:09;17.40;18.30
3198;DHT22;1611;49.394;11.136;2024-02-21T13:38:36;17.30;18.70
3198;DHT22;1611;49.394;11.136;2024-02-21T13:41:04;17.00;19.90
3198;DHT22;1611;49.394;11.136;2024-02-21T13:43:31;16.80;19.40
3198;DHT22;1611;49.394;11.136;2024-02-21T13:46:00;16.80;17.90
3198;DHT22;1611;49.394;11.136;2024-02-21T13:48:28;16.70;20.00
3198;DHT22;1611;49.394;11.136;2024-02-21T13:50:55;16.60;19.90
3198;DHT22;1611;49.394;11.136;2024-02-21T13:53:22;16.20;20.10
3198;DHT22;1611;49.394;11.136;2024-02-21T13:55:49;16.20;21.10
3198;DHT22;1611;49.394;11.136;2024-02-21T13:58:17;16.20;21.60
3198;DHT22;1611;49.394;11.136;2024-02-21T14:00:44;16.10;21.40
3198;DHT22;1611;49.394;11.136;2024-02-21T14:03:12;16.10;21.30
3198;DHT22;1611;49.394;11.136;2024-02-21T14:05:39;16.20;20.70
3198;DHT22;1611;49.394;11.136;2024-02-21T14:08:06;16.30;20.80
3198;DHT22;1611;49.394;11.136;2024-02-21T14:10:33;16.20;20.30
3198;DHT22;1611;49.394;11.136;2024-02-21T14:13:00;16.10;20.90
3198;DHT22;1611;49.394;11.136;2024-02-21T14:15:27;16.10;21.10
3198;DHT22;1611;49.394;11.136;2024-02-21T14:17:53;16.20;22.30
3198;DHT22;1611;49.394;11.136;2024-02-21T14:20:22;16.30;22.20
3198;DHT22;1611;49.394;11.136;2024-02-21T14:22:48;16.10;19.50
3198;DHT22;1611;49.394;11.136;2024-02-21T14:25:15;16.00;19.40
3198;DHT22;1611;49.394;11.136;2024-02-21T14:27:42;15.90;19.60
3198;DHT22;1611;49.394;11.136;2024-02-21T14:30:09;15.80;19.80
3198;DHT22;1611;49.394;11.136;2024-02-21T14:32:36;15.70;19.90
3198;DHT22;1611;49.394;11.136;2024-02-21T14:35:03;15.60;20.70
3198;DHT22;1611;49.394;11.136;2024-02-21T14:37:32;15.60;20.50
3198;DHT22;1611;49.394;11.136;2024-02-21T14:39:59;15.50;22.40
3198;DHT22;1611;49.394;11.136;2024-02-21T14:42:27;15.40;20.80
3198;DHT22;1611;49.394;11.136;2024-02-21T14:44:53;15.40;21.10
3198;DHT22;1611;49.394;11.136;2024-02-21T14:47:29;15.20;22.90
3198;DHT22;1611;49.394;11.136;2024-02-21T14:49:56;15.00;22.90
3198;DHT22;1611;49.394;11.136;2024-02-21T14:52:22;15.00;24.10
3198;DHT22;1611;49.394;11.136;2024-02-21T14:54:51;14.90;24.30
3198;DHT22;1611;49.394;11.136;2024-02-21T14:57:18;15.00;20.00
3198;DHT22;1611;49.394;11.136;2024-02-21T14:59:45;14.80;21.60
3198;DHT22;1611;49.394;11.136;2024-02-21T15:02:14;14.70;20.80
3198;DHT22;1611;49.394;11.136;2024-02-21T15:04:40;14.50;20.90
3198;DHT22;1611;49.394;11.136;2024-02-21T15:07:07;14.30;20.70
3198;DHT22;1611;49.394;11.136;2024-02-21T15:09:34;14.20;21.60
3198;DHT22;1611;49.394;11.136;2024-02-21T15:12:02;14.20;21.30
3198;DHT22;1611;49.394;11.136;2024-02-21T15:14:29;14.10;21.90
3198;DHT22;1611;49.394;11.136;2024-02-21T15:16:56;14.00;24.60
3198;DHT22;1611;49.394;11.136;2024-02-21T15:19:23;13.90;27.00
3198;DHT22;1611;49.394;11.136;2024-02-21T15:21:49;13.80;26.10
3198;DHT22;1611;49.394;11.136;2024-02-21T15:24:16;13.70;26.20
3198;DHT22;1611;49.394;11.136;2024-02-21T15:26:43;13.70;27.10
3198;DHT22;1611;49.394;11.136;2024-02-21T15:29:11;13.60;28.30
3198;DHT22;1611;49.394;11.136;2024-02-21T15:31:38;13.60;27.40
3198;DHT22;1611;49.394;11.136;2024-02-21T15:34:09;13.60;28.30
3198;DHT22;1611;49.394;11.136;2024-02-21T15:36:35;13.50;29.70
3198;DHT22;1611;49.394;11.136;2024-02-21T15:39:02;13.50;30.30
3198;DHT22;1611;49.394;11.136;2024-02-21T15:41:30;13.50;30.70
3198;DHT22;1611;49.394;11.136;2024-02-21T15:43:57;13.40;30.10
3198;DHT22;1611;49.394;11.136;2024-02-21T15:46:26;13.30;32.40
3198;DHT22;1611;49.394;11.136;2024-02-21T15:48:53;13.20;33.20
3198;DHT22;1611;49.394;11.136;2024-02-21T15:51:20;13.20;31.20
3198;DHT22;1611;49.394;11.136;2024-02-21T15:53:47;13.10;32.40
3198;DHT22;1611;49.394;11.136;2024-02-21T15:56:14;13.10;31.70